Weather at Borrego Valley Airport

Public forecast

Using degrees Fahrenheit for public forecast. Weather courtesy of forecast.io.

Closest aviation weather report (METAR) to Borrego Valley Airport

Closest report is Jacqueline Cochran Regional Airport, 23.5 nm (43.5 km) NNE. Retrieved 2021/10/20 19:52 UTC (2 hours ago):

KTRM 201952Z AUTO 10SM CLR 28/01 A3004 RMK AO2 SLP172 T02830011

Closest aviation forecast (TAF) to Borrego Valley Airport

Closest forecast is Jacqueline Cochran Regional Airport, 23.5 nm (43.5 km) NNE. Retrieved 2021/10/20 18:22 UTC (3 hours ago):

TAF KTRM 201720Z 2018/2118 14007KT P6SM SCT200 FM210400 34005KT P6SM SCT200